Time;durP1;ratioP1;P1;durP2;ratioP2;P2;SDS_P1;SDS_P2;PMS_P1;PMS_P2;Temp;Humidity;BMP_temperature;BMP_pressure;BME280_temperature;BME280_humidity;BME280_pressure;Samples;Min_cycle;Max_cycle;Signal;HPM_P1;HPM_P2
2022/03/29 00:01:56;;;;;;;8.65;5.65;;;;;;;10.98;32.80;99676.43;1683575;84;21622;-72
2022/03/29 00:04:23;;;;;;;11.75;6.75;;;;;;;10.95;32.72;99674.31;1679890;84;21277;-72
2022/03/29 00:06:51;;;;;;;10.60;6.15;;;;;;;10.93;32.68;99668.48;1677675;84;21019;-72
2022/03/29 00:09:20;;;;;;;10.90;6.40;;;;;;;10.91;32.69;99658.59;1679692;83;21074;-74
2022/03/29 00:11:48;;;;;;;10.70;6.60;;;;;;;10.86;32.61;99655.98;1690122;84;21054;-72
2022/03/29 00:14:16;;;;;;;10.20;6.20;;;;;;;10.88;32.71;99661.83;1674827;84;21577;-74
2022/03/29 00:16:45;;;;;;;10.82;6.40;;;;;;;10.87;32.66;99654.91;1675744;83;21177;-73
2022/03/29 00:19:13;;;;;;;10.55;6.65;;;;;;;10.85;32.59;99652.25;1678078;84;21010;-74
2022/03/29 00:21:40;;;;;;;10.18;6.58;;;;;;;10.81;32.53;99652.02;1677165;84;21094;-73
2022/03/29 00:24:07;;;;;;;12.60;6.85;;;;;;;10.79;32.63;99656.83;1675835;84;21110;-72
2022/03/29 00:26:34;;;;;;;11.28;7.17;;;;;;;10.74;32.59;99654.21;1678442;84;21552;-72
2022/03/29 00:29:01;;;;;;;12.60;7.30;;;;;;;10.69;32.60;99651.03;1680683;84;21286;-74
2022/03/29 00:31:29;;;;;;;12.47;7.08;;;;;;;10.63;32.59;99650.02;1675485;84;21106;-71
2022/03/29 00:33:56;;;;;;;11.43;6.80;;;;;;;10.61;32.65;99655.64;1653318;85;21020;-74
2022/03/29 00:36:23;;;;;;;11.03;6.83;;;;;;;10.56;32.69;99651.66;1675625;84;20976;-73
2022/03/29 00:38:50;;;;;;;12.50;7.40;;;;;;;10.52;32.58;99649.30;1684461;83;21211;-72
2022/03/29 00:41:17;;;;;;;11.78;7.78;;;;;;;10.49;32.63;99647.98;1682364;84;21268;-71
2022/03/29 00:43:46;;;;;;;11.35;7.37;;;;;;;10.47;32.69;99648.02;1680399;83;21029;-72
2022/03/29 00:46:13;;;;;;;11.63;7.50;;;;;;;10.43;32.67;99646.95;1684313;84;21487;-72
2022/03/29 00:48:40;;;;;;;12.82;7.53;;;;;;;10.41;32.73;99635.23;1682388;84;21633;-72
2022/03/29 00:51:07;;;;;;;13.58;8.30;;;;;;;10.39;32.70;99640.59;1675525;84;21101;-73
2022/03/29 00:53:35;;;;;;;11.28;7.35;;;;;;;10.36;32.72;99638.47;1676566;84;21284;-73
2022/03/29 00:56:03;;;;;;;12.98;7.87;;;;;;;10.34;32.77;99636.09;1655912;85;21115;-73
2022/03/29 00:58:30;;;;;;;13.35;8.18;;;;;;;10.31;32.64;99633.97;1672503;84;21164;-72
2022/03/29 01:00:58;;;;;;;13.10;8.63;;;;;;;10.30;32.62;99635.85;1668719;84;21061;-73
2022/03/29 01:03:25;;;;;;;12.85;8.05;;;;;;;10.27;32.63;99626.27;1665573;86;21101;-72
2022/03/29 01:05:52;;;;;;;13.32;8.78;;;;;;;10.25;32.63;99625.71;1675495;84;21950;-72
2022/03/29 01:08:21;;;;;;;13.98;8.60;;;;;;;10.20;32.77;99627.06;1676421;84;21070;-72
2022/03/29 01:10:50;;;;;;;13.60;8.58;;;;;;;10.19;32.74;99627.61;1679100;84;21099;-73
2022/03/29 01:13:19;;;;;;;13.30;7.97;;;;;;;10.16;32.79;99628.16;1680284;83;21086;-71
2022/03/29 01:15:47;;;;;;;12.63;8.10;;;;;;;10.14;32.87;99621.52;1682644;83;21066;-72
2022/03/29 01:18:17;;;;;;;13.48;8.55;;;;;;;10.09;32.87;99623.12;1679315;84;21288;-72
2022/03/29 01:20:49;;;;;;;12.65;8.65;;;;;;;10.06;32.88;99622.34;1687588;83;21411;-71
2022/03/29 01:23:16;;;;;;;13.40;8.80;;;;;;;10.04;32.90;99624.51;1681231;84;21070;-73
2022/03/29 01:25:44;;;;;;;13.72;8.58;;;;;;;10.03;32.93;99618.89;1683922;84;22384;-73
2022/03/29 01:28:11;;;;;;;13.03;9.18;;;;;;;10.03;32.92;99618.89;1681598;84;21129;-73
2022/03/29 01:30:39;;;;;;;12.53;8.05;;;;;;;10.03;32.92;99614.89;1679766;84;21725;-72
2022/03/29 01:33:07;;;;;;;15.68;9.30;;;;;;;10.02;32.88;99601.84;1678059;83;21022;-73
2022/03/29 01:35:35;;;;;;;14.23;8.80;;;;;;;10.01;32.84;99609.59;1674336;84;21002;-72
2022/03/29 01:38:02;;;;;;;13.22;9.33;;;;;;;10.00;32.80;99600.80;1679065;84;21026;-72
2022/03/29 01:40:29;;;;;;;13.70;8.93;;;;;;;10.01;32.92;99599.72;1680737;84;21502;-73
2022/03/29 01:42:59;;;;;;;14.63;9.48;;;;;;;10.00;32.98;99595.97;1683062;83;21270;-72
2022/03/29 01:45:29;;;;;;;13.60;9.08;;;;;;;9.99;32.93;99597.84;1677368;84;21038;-73
2022/03/29 01:47:56;;;;;;;12.85;9.38;;;;;;;9.98;32.99;99587.47;1677754;83;21506;-72
2022/03/29 01:50:23;;;;;;;13.62;8.38;;;;;;;9.97;32.99;99589.34;1690245;83;21066;-73
2022/03/29 01:52:51;;;;;;;14.40;8.98;;;;;;;9.97;32.91;99600.02;1693589;84;21169;-73
2022/03/29 01:55:19;;;;;;;13.75;9.13;;;;;;;9.97;32.98;99596.01;1692409;84;21910;-73
2022/03/29 01:57:48;;;;;;;13.60;8.95;;;;;;;9.95;32.90;99591.48;1692378;84;21074;-73
2022/03/29 02:00:30;;;;;;;15.45;8.95;;;;;;;9.93;32.98;99592.28;1693148;83;21023;-72
2022/03/29 02:02:58;;;;;;;14.63;9.00;;;;;;;9.88;32.99;99593.66;1689024;84;21184;-72
2022/03/29 02:05:25;;;;;;;14.68;9.45;;;;;;;9.84;33.02;99589.95;1670678;84;21093;-73
2022/03/29 02:07:54;;;;;;;13.93;9.65;;;;;;;9.78;33.00;99593.72;1696301;84;21459;-72
2022/03/29 02:10:22;;;;;;;14.40;8.60;;;;;;;9.71;33.15;99587.35;1693545;84;21082;-72
2022/03/29 02:12:51;;;;;;;13.40;9.20;;;;;;;9.66;33.28;99581.23;1679908;84;21082;-73
2022/03/29 02:15:20;;;;;;;16.67;10.35;;;;;;;9.57;33.36;99583.13;1681231;83;21063;-73
2022/03/29 02:17:48;;;;;;;17.60;9.20;;;;;;;9.50;33.55;99577.30;1679728;84;21098;-74
2022/03/29 02:20:17;;;;;;;13.43;9.30;;;;;;;9.46;33.67;99576.80;1674467;84;20975;-73
2022/03/29 02:22:44;;;;;;;15.05;9.13;;;;;;;9.37;33.78;99573.89;1693376;84;21708;-73
2022/03/29 02:25:12;;;;;;;16.93;9.20;;;;;;;9.31;33.90;99581.13;1693168;83;21067;-72
2022/03/29 02:27:43;;;;;;;15.08;9.68;;;;;;;9.26;34.02;99587.80;1691744;83;21543;-73
2022/03/29 02:30:14;;;;;;;14.35;9.70;;;;;;;9.20;34.13;99580.09;1673615;84;21026;-73
2022/03/29 02:32:41;;;;;;;17.52;10.32;;;;;;;9.14;34.19;99581.42;1664221;86;21349;-74
2022/03/29 02:35:09;;;;;;;16.90;10.13;;;;;;;9.09;34.41;99585.45;1667475;84;21043;-73
2022/03/29 02:37:37;;;;;;;15.32;10.25;;;;;;;9.06;34.50;99575.88;1685358;84;21633;-71
2022/03/29 02:40:06;;;;;;;17.95;10.78;;;;;;;9.07;34.66;99573.47;1681954;83;21093;-72
2022/03/29 02:42:49;;;;;;;15.00;10.40;;;;;;;9.05;34.60;99564.42;1676111;83;21602;-73
2022/03/29 02:45:18;;;;;;;14.87;10.80;;;;;;;9.03;34.63;99566.55;1676955;84;21178;-73
2022/03/29 02:47:49;;;;;;;14.45;9.73;;;;;;;9.05;34.69;99568.94;1675883;84;20983;-72
2022/03/29 02:50:16;;;;;;;14.87;10.18;;;;;;;9.03;34.81;99563.89;1647168;85;21101;-72
2022/03/29 02:52:48;;;;;;;15.55;9.98;;;;;;;9.00;34.93;99557.77;1635260;86;21095;-72
2022/03/29 02:55:18;;;;;;;17.35;10.98;;;;;;;8.97;34.88;99565.50;1629391;87;21103;-73
2022/03/29 02:57:46;;;;;;;16.02;10.88;;;;;;;8.91;35.04;99560.17;1630778;87;21175;-73
2022/03/29 03:00:15;;;;;;;16.12;10.85;;;;;;;8.89;35.19;99566.33;1634755;86;21436;-73
2022/03/29 03:02:47;;;;;;;18.95;10.80;;;;;;;8.84;35.23;99563.66;1630517;87;21033;-73
2022/03/29 03:05:16;;;;;;;15.13;10.75;;;;;;;8.82;35.32;99572.47;1628121;87;21094;-73
2022/03/29 03:07:44;;;;;;;15.23;10.30;;;;;;;8.80;35.35;99567.94;1633261;87;21566;-73
2022/03/29 03:10:14;;;;;;;15.08;10.55;;;;;;;8.79;35.23;99577.00;1640267;87;21285;-73
2022/03/29 03:12:47;;;;;;;18.37;10.85;;;;;;;8.79;35.24;99568.22;1636197;85;21566;-73
2022/03/29 03:15:18;;;;;;;15.72;10.85;;;;;;;8.80;35.26;99560.48;1631078;87;21599;-72
2022/03/29 03:17:45;;;;;;;17.85;11.68;;;;;;;8.79;35.37;99558.90;1633433;87;21086;-72
2022/03/29 03:20:14;;;;;;;15.60;10.95;;;;;;;8.79;35.49;99556.23;1678424;84;20971;-72
2022/03/29 03:22:42;;;;;;;16.93;10.98;;;;;;;8.79;35.45;99562.89;1679457;84;21593;-72
2022/03/29 03:25:10;;;;;;;14.50;10.72;;;;;;;8.77;35.54;99567.14;1684669;84;21029;-72
2022/03/29 03:27:40;;;;;;;17.27;11.33;;;;;;;8.78;35.58;99561.28;1679949;84;21055;-73
2022/03/29 03:30:10;;;;;;;15.35;10.80;;;;;;;8.75;35.58;99563.14;1678657;83;21065;-73
2022/03/29 03:32:37;;;;;;;17.80;11.28;;;;;;;8.75;35.64;99557.81;1686437;81;21280;-72
2022/03/29 03:35:05;;;;;;;16.48;11.50;;;;;;;8.75;35.76;99559.15;1680994;84;21573;-74
2022/03/29 03:37:36;;;;;;;16.62;11.38;;;;;;;8.73;35.78;99559.43;1677892;84;21082;-75
2022/03/29 03:40:05;;;;;;;18.75;12.37;;;;;;;8.75;35.54;99559.94;1663553;85;21071;-73
2022/03/29 03:42:32;;;;;;;15.88;11.18;;;;;;;8.79;35.58;99548.25;1676066;83;21062;-73
2022/03/29 03:45:02;;;;;;;17.90;11.83;;;;;;;8.81;35.51;99556.20;1692886;84;21065;-72
2022/03/29 03:47:30;;;;;;;19.73;11.78;;;;;;;8.85;35.55;99549.30;1691270;84;21177;-73
2022/03/29 03:49:59;;;;;;;18.45;11.63;;;;;;;8.88;35.48;99553.27;1682179;83;21058;-74
2022/03/29 03:52:27;;;;;;;16.52;11.25;;;;;;;8.88;35.57;99546.09;1677093;84;21164;-72
2022/03/29 03:54:57;;;;;;;17.20;11.73;;;;;;;8.88;35.64;99546.09;1680767;84;22128;-74
2022/03/29 03:57:24;;;;;;;17.48;11.03;;;;;;;8.91;35.74;99548.73;1684931;84;21003;-73
2022/03/29 03:59:55;;;;;;;18.05;11.15;;;;;;;8.91;35.70;99547.40;1683708;83;21083;-72
2022/03/29 04:02:20;;;;;;;16.30;10.95;;;;;;;8.90;35.73;99546.61;1676788;84;21022;-74
2022/03/29 04:04:47;;;;;;;17.30;10.98;;;;;;;8.95;35.78;99539.16;1680133;84;21596;-73
2022/03/29 04:07:15;;;;;;;17.10;10.30;;;;;;;8.95;35.85;99544.48;1680707;84;21569;-73
2022/03/29 04:09:43;;;;;;;16.02;11.12;;;;;;;8.98;35.85;99531.14;1684599;83;21129;-73
2022/03/29 04:12:11;;;;;;;16.60;11.28;;;;;;;9.01;35.90;99547.37;1686415;83;21158;-73
2022/03/29 04:14:38;;;;;;;15.43;10.38;;;;;;;9.01;36.03;99546.58;1676618;83;21161;-73
2022/03/29 04:17:06;;;;;;;16.50;10.78;;;;;;;9.04;35.99;99554.82;1678797;83;21101;-74
2022/03/29 04:19:33;;;;;;;18.07;11.28;;;;;;;9.06;35.96;99555.36;1675029;84;21042;-73
2022/03/29 04:22:00;;;;;;;16.95;11.10;;;;;;;9.10;35.89;99543.63;1678562;84;20983;-73
2022/03/29 04:24:28;;;;;;;17.87;10.72;;;;;;;9.14;35.76;99537.47;1683923;84;21204;-73
2022/03/29 04:26:56;;;;;;;13.88;10.43;;;;;;;9.20;35.83;99537.46;1645991;85;21215;-72
2022/03/29 04:29:23;;;;;;;15.70;10.45;;;;;;;9.26;35.69;99550.49;1633621;87;21067;-73
2022/03/29 04:31:52;;;;;;;17.50;10.93;;;;;;;9.31;35.72;99539.83;1649090;86;21165;-73
2022/03/29 04:34:19;;;;;;;16.55;10.30;;;;;;;9.37;35.68;99550.70;1633030;86;21121;-72
2022/03/29 04:36:47;;;;;;;16.20;10.90;;;;;;;9.42;35.76;99555.23;1646200;86;21186;-73
2022/03/29 04:39:14;;;;;;;15.80;10.58;;;;;;;9.47;35.76;99557.86;1651634;86;21315;-73
2022/03/29 04:41:43;;;;;;;16.30;10.43;;;;;;;9.52;35.70;99543.72;1647767;85;21474;-72
2022/03/29 04:44:10;;;;;;;15.75;9.93;;;;;;;9.58;35.84;99551.42;1648671;85;21099;-72
2022/03/29 04:46:39;;;;;;;17.12;10.75;;;;;;;9.64;35.76;99548.20;1644799;86;21070;-72
2022/03/29 04:49:06;;;;;;;15.63;10.95;;;;;;;9.70;35.71;99555.07;1643407;85;22407;-72
2022/03/29 04:51:34;;;;;;;15.40;10.30;;;;;;;9.77;35.65;99549.44;1647086;86;21102;-72
2022/03/29 04:54:03;;;;;;;15.83;10.55;;;;;;;9.82;35.62;99551.54;1661706;85;21038;-73
2022/03/29 04:56:30;;;;;;;16.17;10.85;;;;;;;9.91;35.57;99560.31;1665842;83;21011;-72
2022/03/29 04:58:57;;;;;;;15.53;9.55;;;;;;;9.98;35.63;99554.91;1658575;86;21000;-72
2022/03/29 05:01:24;;;;;;;16.42;11.33;;;;;;;10.06;35.62;99551.64;1645426;86;21154;-72
2022/03/29 05:03:51;;;;;;;15.95;10.58;;;;;;;10.14;35.68;99562.28;1652642;86;21558;-72
2022/03/29 05:06:18;;;;;;;17.37;10.98;;;;;;;10.22;35.48;99563.55;1647139;86;21388;-73
2022/03/29 05:08:46;;;;;;;16.82;10.85;;;;;;;10.30;35.52;99561.13;1652961;86;21025;-73
2022/03/29 05:11:14;;;;;;;16.75;10.58;;;;;;;10.41;35.52;99555.69;1677552;85;21087;-74
2022/03/29 05:13:42;;;;;;;18.73;10.63;;;;;;;10.48;35.51;99559.63;1650552;85;21113;-73
2022/03/29 05:16:11;;;;;;;17.65;10.55;;;;;;;10.56;35.43;99561.70;1646119;86;21043;-74
2022/03/29 05:18:38;;;;;;;17.85;10.03;;;;;;;10.66;35.40;99564.82;1655855;86;21139;-73
2022/03/29 05:21:08;;;;;;;16.17;10.03;;;;;;;10.73;35.23;99566.61;1648288;86;21535;-72
2022/03/29 05:23:37;;;;;;;15.85;10.15;;;;;;;10.85;35.28;99561.42;1646396;86;21149;-73
2022/03/29 05:26:04;;;;;;;16.27;10.72;;;;;;;10.94;35.16;99555.17;1651290;85;21265;-74
2022/03/29 05:28:31;;;;;;;16.60;11.00;;;;;;;11.09;35.03;99564.09;1648331;85;21034;-74
2022/03/29 05:31:00;;;;;;;17.10;11.05;;;;;;;11.23;34.78;99557.00;1649971;86;21054;-73
2022/03/29 05:33:27;;;;;;;17.48;10.43;;;;;;;11.38;34.75;99550.66;1646087;85;21109;-74
2022/03/29 05:35:54;;;;;;;16.48;10.55;;;;;;;11.54;34.48;99554.73;1649785;86;21078;-73
2022/03/29 05:38:22;;;;;;;16.60;11.40;;;;;;;11.71;34.32;99554.23;1646290;86;21783;-73
2022/03/29 05:40:49;;;;;;;17.52;11.03;;;;;;;11.82;34.16;99556.25;1652085;85;21609;-73
2022/03/29 05:43:17;;;;;;;18.62;11.10;;;;;;;11.91;34.11;99554.52;1638259;86;21526;-73
2022/03/29 05:48:51;;;;;;;16.73;11.08;;;;;;;12.00;34.19;99545.30;1652156;85;21455;-74
2022/03/29 05:51:00;;;;;;;16.02;11.22;;;;;;;12.17;34.25;99546.90;1664855;84;21669;-74
2022/03/29 05:53:27;;;;;;;17.55;11.05;;;;;;;12.28;34.13;99551.02;1665784;86;21066;-73
2022/03/29 05:55:54;;;;;;;16.65;11.35;;;;;;;12.38;34.18;99546.05;1665274;86;21034;-73
2022/03/29 05:58:21;;;;;;;16.62;10.90;;;;;;;12.43;34.05;99549.41;1674996;84;21067;-75
2022/03/29 06:00:48;;;;;;;17.62;10.72;;;;;;;12.49;33.91;99553.36;1659185;85;21043;-72
2022/03/29 06:03:15;;;;;;;20.17;10.60;;;;;;;12.57;34.13;99536.08;1663551;84;21907;-72
2022/03/29 06:05:46;;;;;;;15.03;10.75;;;;;;;12.69;33.92;99536.92;1681058;84;21096;-73
2022/03/29 06:08:12;;;;;;;16.15;10.30;;;;;;;12.84;34.06;99538.00;1679870;84;21046;-75
2022/03/29 06:10:40;;;;;;;18.48;10.23;;;;;;;12.99;33.95;99540.12;1682328;83;21517;-74
2022/03/29 06:13:08;;;;;;;14.98;9.78;;;;;;;13.11;33.97;99531.84;1677070;84;21492;-74
2022/03/29 06:15:37;;;;;;;15.50;9.35;;;;;;;13.29;33.86;99535.55;1681839;83;21675;-74
2022/03/29 06:18:06;;;;;;;15.32;10.45;;;;;;;13.45;33.66;99513.20;1678692;83;21015;-73
2022/03/29 06:20:35;;;;;;;14.10;9.58;;;;;;;13.58;33.65;99527.13;1684227;84;21140;-73
2022/03/29 06:23:03;;;;;;;14.60;10.05;;;;;;;13.67;33.51;99523.75;1683811;84;21491;-73
2022/03/29 06:25:35;;;;;;;15.68;10.55;;;;;;;13.72;33.60;99527.64;1680410;83;21066;-73
2022/03/29 06:28:02;;;;;;;;;;;;;;;13.75;33.49;99527.83;1679312;84;21254;-73
2022/03/29 06:30:29;;;;;;;16.80;9.75;;;;;;;13.80;33.43;99529.07;1676254;83;20465;-73
2022/03/29 06:32:58;;;;;;;14.43;9.27;;;;;;;13.86;33.47;99534.33;1692785;84;21120;-74
2022/03/29 06:35:28;;;;;;;14.30;9.65;;;;;;;13.95;33.56;99533.83;1692779;84;21133;-74
2022/03/29 06:37:58;;;;;;;14.93;9.67;;;;;;;14.03;33.52;99527.20;1686188;84;21004;-74
2022/03/29 06:40:26;;;;;;;13.53;9.00;;;;;;;14.11;33.50;99520.84;1700149;82;21635;-74
2022/03/29 06:42:55;;;;;;;15.70;10.10;;;;;;;14.20;33.55;99520.36;1703445;84;21202;-74
2022/03/29 06:45:22;;;;;;;15.33;9.97;;;;;;;14.26;33.41;99513.21;1687228;84;21755;-74
2022/03/29 06:47:50;;;;;;;12.80;8.53;;;;;;;14.33;33.47;99513.33;1677040;84;21146;-74
2022/03/29 06:50:18;;;;;;;12.50;8.97;;;;;;;14.39;33.61;99520.17;1683088;84;21371;-75
2022/03/29 06:52:46;;;;;;;12.27;8.80;;;;;;;14.45;33.39;99510.33;1673797;84;21316;-74
2022/03/29 06:55:16;;;;;;;16.20;9.73;;;;;;;14.51;33.44;99504.28;1685306;84;22134;-74
2022/03/29 06:57:45;;;;;;;13.40;9.15;;;;;;;14.53;33.43;99503.44;1689774;83;21302;-74
2022/03/29 07:00:13;;;;;;;14.00;9.00;;;;;;;14.54;33.18;99502.33;1686105;84;21167;-75
2022/03/29 07:02:41;;;;;;;12.47;8.60;;;;;;;14.51;33.18;99505.63;1668348;84;21313;-73
2022/03/29 07:05:09;;;;;;;14.57;9.03;;;;;;;14.50;33.44;99502.15;1681891;84;22135;-73
2022/03/29 07:07:36;;;;;;;16.13;9.30;;;;;;;14.49;33.43;99502.44;1684175;84;21218;-75
2022/03/29 07:12:54;;;;;;;13.23;7.93;;;;;;;14.63;33.43;99498.34;1665474;86;21507;-73
2022/03/29 07:15:22;;;;;;;11.83;7.40;;;;;;;14.78;33.34;99500.63;1686840;83;21837;-74
2022/03/29 07:17:49;;;;;;;12.93;7.90;;;;;;;14.93;33.39;99496.72;1694079;84;21268;-73
2022/03/29 07:20:23;;;;;;;15.07;8.17;;;;;;;15.07;33.14;99492.03;1674070;85;21337;-72
2022/03/29 07:22:53;;;;;;;13.07;8.07;;;;;;;15.19;33.31;99491.41;1688967;84;21771;-73
2022/03/29 07:25:21;;;;;;;13.57;8.07;;;;;;;15.32;33.15;99491.04;1674547;84;21219;-74
2022/03/29 07:27:49;;;;;;;11.77;7.57;;;;;;;15.39;32.90;99491.36;1677666;84;21315;-74
2022/03/29 07:30:16;;;;;;;14.07;8.50;;;;;;;15.43;32.88;99493.13;1679945;83;21325;-72
2022/03/29 07:32:51;;;;;;;17.50;9.90;;;;;;;15.48;32.92;99495.65;1682312;83;21346;-73
2022/03/29 07:35:22;;;;;;;15.43;8.53;;;;;;;15.60;33.06;99492.34;1677700;84;21948;-74
2022/03/29 07:37:49;;;;;;;13.23;8.47;;;;;;;15.61;32.95;99503.34;1685046;83;22136;-74
2022/03/29 07:40:19;;;;;;;14.63;8.27;;;;;;;15.67;32.92;99491.34;1683018;84;21299;-74
2022/03/29 07:42:47;;;;;;;14.53;7.50;;;;;;;15.74;32.68;99480.66;1683037;84;21297;-74
2022/03/29 07:45:16;;;;;;;15.97;7.83;;;;;;;15.83;32.66;99491.66;1683997;84;21310;-72
2022/03/29 07:47:43;;;;;;;12.67;7.47;;;;;;;15.95;32.64;99477.53;1680611;84;21118;-72
2022/03/29 07:50:11;;;;;;;11.73;7.10;;;;;;;16.09;32.90;99476.82;1679936;84;21218;-72
2022/03/29 07:52:41;;;;;;;11.43;7.10;;;;;;;16.29;32.53;99477.26;1667564;84;21379;-75
2022/03/29 07:55:11;;;;;;;10.97;7.10;;;;;;;16.45;32.05;99485.03;1665585;85;21300;-75
2022/03/29 07:57:39;;;;;;;10.40;6.70;;;;;;;16.56;31.86;99466.06;1678632;84;21584;-74
2022/03/29 08:02:56;;;;;;;11.53;7.00;;;;;;;16.80;31.60;99467.41;1679401;84;21368;-73
2022/03/29 08:05:23;;;;;;;11.40;7.40;;;;;;;16.83;31.47;99472.16;1679081;84;21372;-76
2022/03/29 08:07:51;;;;;;;12.63;7.20;;;;;;;16.84;31.42;99463.73;1683566;84;21781;-73
2022/03/29 08:10:19;;;;;;;9.07;6.17;;;;;;;16.86;31.34;99463.42;1681662;84;21370;-76
2022/03/29 08:12:46;;;;;;;12.83;6.43;;;;;;;16.94;31.47;99446.95;1680764;84;21451;-73
2022/03/29 08:15:13;;;;;;;9.87;6.33;;;;;;;17.03;31.32;99443.64;1678393;84;21429;-73
2022/03/29 08:17:41;;;;;;;9.30;6.10;;;;;;;17.13;31.16;99452.70;1684029;84;21512;-72
2022/03/29 08:20:10;;;;;;;8.13;5.70;;;;;;;17.24;31.45;99426.11;1679466;84;21410;-74
2022/03/29 08:22:44;;;;;;;9.70;5.90;;;;;;;17.40;31.08;99443.86;1660651;85;21565;-76
2022/03/29 08:25:09;;;;;;;9.40;5.27;;;;;;;17.55;30.97;99427.08;1671354;84;21592;-74
2022/03/29 08:27:36;;;;;;;9.03;5.43;;;;;;;17.57;30.87;99417.53;1682945;84;22126;-75
2022/03/29 08:30:04;;;;;;;10.53;5.70;;;;;;;17.57;30.87;99417.53;1673976;84;21689;-74
2022/03/29 08:32:32;;;;;;;11.73;7.00;;;;;;;17.59;30.90;99427.42;1681494;84;21658;-73
2022/03/29 08:35:00;;;;;;;11.40;6.30;;;;;;;17.59;31.02;99420.67;1680068;84;21776;-74
2022/03/29 08:37:27;;;;;;;10.37;6.30;;;;;;;17.57;31.13;99419.41;1674061;84;21833;-75
2022/03/29 08:39:54;;;;;;;10.17;6.07;;;;;;;17.52;31.75;99425.82;1665299;86;21685;-76
2022/03/29 08:42:23;;;;;;;12.20;6.87;;;;;;;17.67;31.40;99402.02;1677515;84;21761;-74
2022/03/29 08:44:50;;;;;;;11.13;6.40;;;;;;;17.67;31.40;99402.02;1683759;84;21762;-75
2022/03/29 08:47:17;;;;;;;9.37;5.63;;;;;;;17.88;32.25;99413.61;1674019;84;21568;-73
2022/03/29 08:49:45;;;;;;;11.33;6.33;;;;;;;17.88;32.25;99413.61;1680724;83;21707;-75
2022/03/29 08:52:12;;;;;;;10.40;5.43;;;;;;;18.10;31.57;99407.56;1682421;84;22228;-76
2022/03/29 08:54:39;;;;;;;9.73;6.17;;;;;;;18.27;31.20;99414.93;1687353;83;22379;-73
2022/03/29 08:57:07;;;;;;;11.80;6.00;;;;;;;18.31;31.24;99394.77;1677210;83;23230;-75
2022/03/29 08:59:37;;;;;;;9.77;5.50;;;;;;;18.43;31.29;99401.55;1684653;84;21741;-76
2022/03/29 09:02:12;;;;;;;8.40;4.97;;;;;;;18.55;31.04;99390.50;1662221;83;22056;-76
2022/03/29 09:04:39;;;;;;;9.70;5.53;;;;;;;18.63;31.20;99388.25;1682250;84;21793;-75
2022/03/29 09:07:07;;;;;;;10.67;5.90;;;;;;;18.63;31.05;99384.98;1679991;83;21750;-70
2022/03/29 09:09:38;;;;;;;9.70;5.30;;;;;;;18.64;31.34;99379.79;1686616;84;21722;-73
2022/03/29 09:12:20;;;;;;;11.83;5.53;;;;;;;18.71;31.62;99387.33;1694349;84;21738;-73
2022/03/29 09:15:02;;;;;;;8.23;5.10;;;;;;;18.72;31.67;99379.46;1685097;84;21078;-75
2022/03/29 09:17:46;;;;;;;8.43;5.33;;;;;;;18.70;31.85;99369.53;1681624;84;21788;-74
2022/03/29 09:20:21;;;;;;;9.37;5.97;;;;;;;18.69;31.87;99367.94;1678982;84;37385;-75
2022/03/29 09:22:51;;;;;;;8.53;5.07;;;;;;;18.76;31.78;99370.91;1678711;83;21999;-75
2022/03/29 09:25:20;;;;;;;8.27;5.23;;;;;;;18.82;31.63;99355.22;1676276;84;21731;-73
2022/03/29 09:27:58;;;;;;;9.80;5.20;;;;;;;18.90;31.82;99357.02;1677772;84;21466;-73
2022/03/29 09:30:30;;;;;;;8.33;5.40;;;;;;;19.02;31.67;99354.83;1681183;83;21837;-74
2022/03/29 09:33:04;;;;;;;10.67;5.30;;;;;;;19.08;31.88;99351.55;1684947;83;21727;-77
2022/03/29 09:35:34;;;;;;;9.57;5.30;;;;;;;18.90;31.98;99343.49;1682906;84;22285;-74
2022/03/29 09:38:02;;;;;;;8.58;5.20;;;;;;;18.90;31.98;99343.49;1686122;84;21105;-74
2022/03/29 09:40:35;;;;;;;7.20;5.20;;;;;;;18.81;32.30;99344.97;1677702;84;21113;-76
2022/03/29 09:43:08;;;;;;;9.53;5.27;;;;;;;19.00;32.22;99326.78;1680945;84;21528;-74
2022/03/29 09:45:48;;;;;;;8.30;5.03;;;;;;;19.00;32.22;99299.72;1680915;83;21131;-73
2022/03/29 09:48:34;;;;;;;7.30;4.80;;;;;;;19.10;31.80;99314.67;1678064;84;21148;-76
2022/03/29 09:51:15;;;;;;;8.57;5.00;;;;;;;19.22;32.04;99324.11;1691464;84;21062;-77
2022/03/29 09:53:51;;;;;;;8.63;4.70;;;;;;;19.37;31.90;99300.91;1678980;84;21580;-75
2022/03/29 09:56:28;;;;;;;9.83;5.67;;;;;;;19.54;31.98;99299.80;1681507;84;21047;-74
2022/03/29 09:59:11;;;;;;;8.63;5.50;;;;;;;19.75;31.82;99284.13;1686103;84;21503;-72
2022/03/29 10:01:54;;;;;;;7.47;4.77;;;;;;;19.88;31.18;99283.48;1681713;83;21114;-75
2022/03/29 10:04:23;;;;;;;8.93;5.33;;;;;;;19.88;30.97;99274.00;1688552;83;27423;-78
2022/03/29 10:06:59;;;;;;;8.30;5.23;;;;;;;19.86;30.93;99266.20;1677486;84;20995;-74
2022/03/29 10:09:37;;;;;;;7.90;5.47;;;;;;;19.89;30.99;99272.86;1671335;83;21047;-74
2022/03/29 10:12:08;;;;;;;7.33;5.10;;;;;;;19.95;30.86;99270.67;1677251;83;21058;-76
2022/03/29 10:14:40;;;;;;;7.73;4.87;;;;;;;20.09;30.89;99274.49;1689679;84;21154;-77
2022/03/29 10:17:07;;;;;;;9.83;5.27;;;;;;;20.33;30.55;99261.28;1680430;83;21106;-78
2022/03/29 10:19:37;;;;;;;8.10;5.20;;;;;;;20.50;30.12;99281.01;1691686;84;21085;-73
2022/03/29 10:22:06;;;;;;;9.43;5.57;;;;;;;20.56;30.40;99268.77;1690765;83;21566;-77
2022/03/29 10:24:36;;;;;;;8.07;5.07;;;;;;;20.66;29.76;99251.94;1693283;84;21038;-78
2022/03/29 10:27:04;;;;;;;8.90;5.30;;;;;;;20.73;29.62;99252.10;1684843;84;21542;-74
2022/03/29 10:29:31;;;;;;;7.50;5.40;;;;;;;20.72;29.53;99255.94;1682567;84;21038;-76
2022/03/29 10:32:05;;;;;;;7.27;4.63;;;;;;;20.60;29.61;99271.80;1684671;84;21019;-75
2022/03/29 10:34:39;;;;;;;7.73;5.37;;;;;;;20.41;29.87;99240.55;1685482;84;21100;-75
2022/03/29 10:37:16;;;;;;;7.55;5.42;;;;;;;20.20;30.03;99250.91;1689413;84;21038;-73
2022/03/29 10:40:03;;;;;;;9.37;5.57;;;;;;;20.04;30.22;99257.70;1685260;84;21621;-76
2022/03/29 10:42:44;;;;;;;7.50;5.23;;;;;;;19.88;30.17;99243.62;1676285;83;21073;-76
2022/03/29 10:45:25;;;;;;;8.33;5.40;;;;;;;19.79;30.50;99245.72;1682382;84;21065;-77
2022/03/29 10:48:06;;;;;;;7.47;4.73;;;;;;;19.74;30.46;99256.80;1685473;83;21235;-76
2022/03/29 10:50:57;;;;;;;9.03;5.47;;;;;;;19.62;30.82;99244.12;1684280;83;21055;-75
2022/03/29 10:53:31;;;;;;;8.87;6.13;;;;;;;19.44;31.08;99248.29;1685628;84;21273;-76
2022/03/29 10:56:23;;;;;;;8.37;5.03;;;;;;;19.23;31.25;99228.23;1678765;84;21626;-74
2022/03/29 10:59:08;;;;;;;8.87;5.40;;;;;;;19.20;31.54;99231.63;1682621;84;21075;-74
2022/03/29 11:01:37;;;;;;;8.33;5.80;;;;;;;19.16;31.66;99205.04;1691872;83;20995;-74
2022/03/29 11:04:17;;;;;;;9.77;6.03;;;;;;;19.15;31.36;99212.38;1703526;83;20983;-74
2022/03/29 11:07:07;;;;;;;;;;;;;;;19.23;31.29;99207.14;1694579;84;21077;-76
2022/03/29 11:09:36;;;;;;;9.27;5.60;;;;;;;19.42;31.10;99203.97;1641911;85;20234;-75
2022/03/29 11:12:04;;;;;;;8.53;6.27;;;;;;;19.76;30.65;99196.87;1646875;87;21520;-74
2022/03/29 11:14:35;;;;;;;10.33;6.90;;;;;;;20.03;29.94;99183.73;1649230;84;21122;-78
2022/03/29 11:17:12;;;;;;;8.83;6.03;;;;;;;20.14;29.13;99183.42;1661258;86;20955;-76
2022/03/29 11:19:54;;;;;;;11.03;6.50;;;;;;;20.08;28.58;99189.47;1654327;85;21501;-74
2022/03/29 11:22:39;;;;;;;12.83;6.93;;;;;;;19.94;28.54;99166.91;1666412;85;21095;-76
2022/03/29 11:25:05;;;;;;;10.30;6.63;;;;;;;19.76;28.67;99150.23;1660535;84;21286;-77
2022/03/29 11:27:36;;;;;;;12.03;6.33;;;;;;;19.63;28.64;99161.74;1684243;84;21127;-74
2022/03/29 11:30:07;;;;;;;10.60;7.23;;;;;;;19.49;28.74;99172.79;1681986;84;21140;-74
2022/03/29 11:32:35;;;;;;;12.58;6.95;;;;;;;19.37;28.79;99171.73;1685400;83;21627;-76
2022/03/29 11:35:07;;;;;;;44.83;13.40;;;;;;;19.27;28.90;99212.08;1713988;83;21054;-76
2022/03/29 11:37:40;;;;;;;34.93;11.67;;;;;;;18.90;35.10;99291.52;1684909;85;21604;-79
2022/03/29 11:40:10;;;;;;;14.45;10.78;;;;;;;18.02;40.40;99370.86;1638330;87;21071;-79
2022/03/29 11:42:55;;;;;;;20.23;12.03;;;;;;;16.69;47.86;99354.28;1629771;87;21020;-78
2022/03/29 11:45:28;;;;;;;20.67;12.63;;;;;;;14.01;55.16;99348.16;1681927;84;21792;-79
2022/03/29 11:47:58;;;;;;;18.70;12.47;;;;;;;13.45;56.70;99347.45;1675136;84;21533;-79